sensor_id;sensor_type;location;lat;lon;timestamp;temperature;humidity
80560;DHT22;70065;42.700;23.316;2024-02-04T00:01:19;23.90;43.40
80560;DHT22;70065;42.700;23.316;2024-02-04T00:03:45;23.90;43.70
80560;DHT22;70065;42.700;23.316;2024-02-04T00:06:11;23.90;43.20
80560;DHT22;70065;42.700;23.316;2024-02-04T00:08:37;23.90;43.40
80560;DHT22;70065;42.700;23.316;2024-02-04T00:11:03;23.90;43.50
80560;DHT22;70065;42.700;23.316;2024-02-04T00:13:30;23.90;43.40
80560;DHT22;70065;42.700;23.316;2024-02-04T00:15:56;23.80;43.50
80560;DHT22;70065;42.700;23.316;2024-02-04T00:18:24;23.90;43.60
80560;DHT22;70065;42.700;23.316;2024-02-04T00:20:50;23.90;43.60
80560;DHT22;70065;42.700;23.316;2024-02-04T00:23:16;23.90;43.50
80560;DHT22;70065;42.700;23.316;2024-02-04T00:25:42;23.90;43.40
80560;DHT22;70065;42.700;23.316;2024-02-04T00:28:08;23.80;43.30
80560;DHT22;70065;42.700;23.316;2024-02-04T00:30:37;23.90;43.30
80560;DHT22;70065;42.700;23.316;2024-02-04T00:33:04;23.90;43.30
80560;DHT22;70065;42.700;23.316;2024-02-04T00:35:29;23.90;43.30
80560;DHT22;70065;42.700;23.316;2024-02-04T00:37:55;23.80;42.90
80560;DHT22;70065;42.700;23.316;2024-02-04T00:40:21;23.80;43.20
80560;DHT22;70065;42.700;23.316;2024-02-04T00:42:47;23.90;42.80
80560;DHT22;70065;42.700;23.316;2024-02-04T00:45:13;23.80;43.00
80560;DHT22;70065;42.700;23.316;2024-02-04T00:47:39;23.80;43.20
80560;DHT22;70065;42.700;23.316;2024-02-04T00:50:05;23.80;43.20
80560;DHT22;70065;42.700;23.316;2024-02-04T00:52:31;23.80;43.10
80560;DHT22;70065;42.700;23.316;2024-02-04T00:54:56;23.80;43.20
80560;DHT22;70065;42.700;23.316;2024-02-04T00:57:22;23.80;43.20
80560;DHT22;70065;42.700;23.316;2024-02-04T00:59:48;23.80;43.20
80560;DHT22;70065;42.700;23.316;2024-02-04T01:02:15;23.80;43.20
80560;DHT22;70065;42.700;23.316;2024-02-04T01:04:41;23.80;43.20
80560;DHT22;70065;42.700;23.316;2024-02-04T01:07:07;23.80;43.10
80560;DHT22;70065;42.700;23.316;2024-02-04T01:09:33;23.80;43.20
80560;DHT22;70065;42.700;23.316;2024-02-04T01:11:58;23.80;43.10
80560;DHT22;70065;42.700;23.316;2024-02-04T01:14:24;23.80;43.10
80560;DHT22;70065;42.700;23.316;2024-02-04T01:16:50;23.80;42.90
80560;DHT22;70065;42.700;23.316;2024-02-04T01:19:15;23.80;42.80
80560;DHT22;70065;42.700;23.316;2024-02-04T01:21:41;23.80;43.20
80560;DHT22;70065;42.700;23.316;2024-02-04T01:24:07;23.80;43.10
80560;DHT22;70065;42.700;23.316;2024-02-04T01:26:33;23.80;43.10
80560;DHT22;70065;42.700;23.316;2024-02-04T01:28:58;23.80;43.10
80560;DHT22;70065;42.700;23.316;2024-02-04T01:31:24;23.80;43.10
80560;DHT22;70065;42.700;23.316;2024-02-04T01:33:50;23.80;43.00
80560;DHT22;70065;42.700;23.316;2024-02-04T01:36:15;23.80;43.10
80560;DHT22;70065;42.700;23.316;2024-02-04T01:38:41;23.80;43.10
80560;DHT22;70065;42.700;23.316;2024-02-04T01:41:07;23.80;43.10
80560;DHT22;70065;42.700;23.316;2024-02-04T01:43:32;23.80;42.70
80560;DHT22;70065;42.700;23.316;2024-02-04T01:45:58;23.80;42.80
80560;DHT22;70065;42.700;23.316;2024-02-04T01:48:24;23.80;43.20
80560;DHT22;70065;42.700;23.316;2024-02-04T01:50:51;23.80;43.10
80560;DHT22;70065;42.700;23.316;2024-02-04T01:53:19;23.80;44.00
80560;DHT22;70065;42.700;23.316;2024-02-04T01:55:47;23.80;43.10
80560;DHT22;70065;42.700;23.316;2024-02-04T01:58:15;23.80;43.10
80560;DHT22;70065;42.700;23.316;2024-02-04T02:00:41;23.80;43.10
80560;DHT22;70065;42.700;23.316;2024-02-04T02:03:10;23.80;42.50
80560;DHT22;70065;42.700;23.316;2024-02-04T02:05:36;23.80;42.80
80560;DHT22;70065;42.700;23.316;2024-02-04T02:08:02;23.80;43.10
80560;DHT22;70065;42.700;23.316;2024-02-04T02:10:28;23.80;42.10
80560;DHT22;70065;42.700;23.316;2024-02-04T02:13:09;23.70;42.70
80560;DHT22;70065;42.700;23.316;2024-02-04T02:15:43;23.80;43.10
80560;DHT22;70065;42.700;23.316;2024-02-04T02:18:18;23.70;42.90
80560;DHT22;70065;42.700;23.316;2024-02-04T02:23:34;23.80;43.00
80560;DHT22;70065;42.700;23.316;2024-02-04T02:26:00;23.80;43.00
80560;DHT22;70065;42.700;23.316;2024-02-04T02:28:26;23.80;43.00
80560;DHT22;70065;42.700;23.316;2024-02-04T02:30:52;23.80;43.00
80560;DHT22;70065;42.700;23.316;2024-02-04T02:33:18;23.70;42.80
80560;DHT22;70065;42.700;23.316;2024-02-04T02:35:45;23.80;42.80
80560;DHT22;70065;42.700;23.316;2024-02-04T02:38:22;23.70;42.60
80560;DHT22;70065;42.700;23.316;2024-02-04T02:41:04;23.80;43.10
80560;DHT22;70065;42.700;23.316;2024-02-04T02:43:33;23.80;41.90
80560;DHT22;70065;42.700;23.316;2024-02-04T02:46:00;23.70;42.70
80560;DHT22;70065;42.700;23.316;2024-02-04T02:48:26;23.70;42.90
80560;DHT22;70065;42.700;23.316;2024-02-04T02:50:53;23.70;42.40
80560;DHT22;70065;42.700;23.316;2024-02-04T02:53:19;23.80;42.10
80560;DHT22;70065;42.700;23.316;2024-02-04T02:55:45;23.70;42.80
80560;DHT22;70065;42.700;23.316;2024-02-04T02:58:13;23.70;42.90
80560;DHT22;70065;42.700;23.316;2024-02-04T03:00:40;23.80;42.80
80560;DHT22;70065;42.700;23.316;2024-02-04T03:03:05;23.70;42.80
80560;DHT22;70065;42.700;23.316;2024-02-04T03:05:31;23.70;43.00
80560;DHT22;70065;42.700;23.316;2024-02-04T03:07:58;23.70;43.00
80560;DHT22;70065;42.700;23.316;2024-02-04T03:10:23;23.70;42.90
80560;DHT22;70065;42.700;23.316;2024-02-04T03:12:49;23.70;42.90
80560;DHT22;70065;42.700;23.316;2024-02-04T03:15:15;23.70;42.90
80560;DHT22;70065;42.700;23.316;2024-02-04T03:17:42;23.70;42.90
80560;DHT22;70065;42.700;23.316;2024-02-04T03:20:08;23.70;42.80
80560;DHT22;70065;42.700;23.316;2024-02-04T03:22:35;23.70;42.80
80560;DHT22;70065;42.700;23.316;2024-02-04T03:25:01;23.70;42.10
80560;DHT22;70065;42.700;23.316;2024-02-04T03:27:26;23.70;42.60
80560;DHT22;70065;42.700;23.316;2024-02-04T03:29:52;23.70;43.00
80560;DHT22;70065;42.700;23.316;2024-02-04T03:32:18;23.70;42.00
80560;DHT22;70065;42.700;23.316;2024-02-04T03:34:43;23.70;42.80
80560;DHT22;70065;42.700;23.316;2024-02-04T03:37:09;23.70;43.00
80560;DHT22;70065;42.700;23.316;2024-02-04T03:39:35;23.70;42.90
80560;DHT22;70065;42.700;23.316;2024-02-04T03:42:01;23.70;42.90
80560;DHT22;70065;42.700;23.316;2024-02-04T03:44:27;23.70;43.00
80560;DHT22;70065;42.700;23.316;2024-02-04T03:46:52;23.70;43.90
80560;DHT22;70065;42.700;23.316;2024-02-04T03:49:18;23.70;43.00
80560;DHT22;70065;42.700;23.316;2024-02-04T03:51:44;23.70;43.00
80560;DHT22;70065;42.700;23.316;2024-02-04T03:54:10;23.70;43.00
80560;DHT22;70065;42.700;23.316;2024-02-04T03:56:35;23.70;43.00
80560;DHT22;70065;42.700;23.316;2024-02-04T03:59:01;23.70;43.00
80560;DHT22;70065;42.700;23.316;2024-02-04T04:01:27;23.70;42.80
80560;DHT22;70065;42.700;23.316;2024-02-04T04:03:53;23.70;42.50
80560;DHT22;70065;42.700;23.316;2024-02-04T04:06:18;23.70;42.80
80560;DHT22;70065;42.700;23.316;2024-02-04T04:08:44;23.70;41.70
80560;DHT22;70065;42.700;23.316;2024-02-04T04:11:10;23.70;42.40
80560;DHT22;70065;42.700;23.316;2024-02-04T04:13:37;23.70;42.50
80560;DHT22;70065;42.700;23.316;2024-02-04T04:16:03;23.70;42.50
80560;DHT22;70065;42.700;23.316;2024-02-04T04:18:30;23.70;42.40
80560;DHT22;70065;42.700;23.316;2024-02-04T04:20:56;23.70;42.50
80560;DHT22;70065;42.700;23.316;2024-02-04T04:23:22;23.70;42.70
80560;DHT22;70065;42.700;23.316;2024-02-04T04:25:47;23.70;42.70
80560;DHT22;70065;42.700;23.316;2024-02-04T04:28:13;23.70;42.70
80560;DHT22;70065;42.700;23.316;2024-02-04T04:30:39;23.70;42.60
80560;DHT22;70065;42.700;23.316;2024-02-04T04:33:05;23.70;42.50
80560;DHT22;70065;42.700;23.316;2024-02-04T04:35:31;23.70;41.90
80560;DHT22;70065;42.700;23.316;2024-02-04T04:37:57;23.70;42.50
80560;DHT22;70065;42.700;23.316;2024-02-04T04:40:23;23.70;42.20
80560;DHT22;70065;42.700;23.316;2024-02-04T04:42:49;23.70;42.20
80560;DHT22;70065;42.700;23.316;2024-02-04T04:45:15;23.70;42.90
80560;DHT22;70065;42.700;23.316;2024-02-04T04:47:41;23.70;42.70
80560;DHT22;70065;42.700;23.316;2024-02-04T04:50:07;23.70;42.70
80560;DHT22;70065;42.700;23.316;2024-02-04T04:52:32;23.70;42.70
80560;DHT22;70065;42.700;23.316;2024-02-04T04:54:58;23.70;42.70
80560;DHT22;70065;42.700;23.316;2024-02-04T04:57:24;23.70;42.70
80560;DHT22;70065;42.700;23.316;2024-02-04T04:59:50;23.70;42.70
80560;DHT22;70065;42.700;23.316;2024-02-04T05:02:16;23.70;42.60
80560;DHT22;70065;42.700;23.316;2024-02-04T05:04:43;23.70;42.60
80560;DHT22;70065;42.700;23.316;2024-02-04T05:07:10;23.70;42.40
80560;DHT22;70065;42.700;23.316;2024-02-04T05:09:36;23.70;41.80
80560;DHT22;70065;42.700;23.316;2024-02-04T05:12:03;23.60;42.50
80560;DHT22;70065;42.700;23.316;2024-02-04T05:14:29;23.60;42.50
80560;DHT22;70065;42.700;23.316;2024-02-04T05:16:55;23.70;42.40
80560;DHT22;70065;42.700;23.316;2024-02-04T05:19:20;23.60;42.50
80560;DHT22;70065;42.700;23.316;2024-02-04T05:21:46;23.60;42.40
80560;DHT22;70065;42.700;23.316;2024-02-04T05:24:12;23.60;42.40
80560;DHT22;70065;42.700;23.316;2024-02-04T05:26:38;23.60;42.40
80560;DHT22;70065;42.700;23.316;2024-02-04T05:29:04;23.70;41.80
80560;DHT22;70065;42.700;23.316;2024-02-04T05:31:29;23.60;42.00
80560;DHT22;70065;42.700;23.316;2024-02-04T05:33:56;23.70;42.50
80560;DHT22;70065;42.700;23.316;2024-02-04T05:36:22;23.60;41.80
80560;DHT22;70065;42.700;23.316;2024-02-04T05:38:47;23.60;42.20
80560;DHT22;70065;42.700;23.316;2024-02-04T05:41:13;23.60;42.50
80560;DHT22;70065;42.700;23.316;2024-02-04T05:43:39;23.60;42.50
80560;DHT22;70065;42.700;23.316;2024-02-04T05:46:05;23.60;41.70
80560;DHT22;70065;42.700;23.316;2024-02-04T05:48:31;23.60;41.70
80560;DHT22;70065;42.700;23.316;2024-02-04T05:50:56;23.60;42.10
80560;DHT22;70065;42.700;23.316;2024-02-04T05:53:22;23.60;42.20
80560;DHT22;70065;42.700;23.316;2024-02-04T05:55:48;23.60;42.10
80560;DHT22;70065;42.700;23.316;2024-02-04T05:58:14;23.60;42.30
80560;DHT22;70065;42.700;23.316;2024-02-04T06:00:40;23.60;42.60
80560;DHT22;70065;42.700;23.316;2024-02-04T06:03:06;23.60;42.70
80560;DHT22;70065;42.700;23.316;2024-02-04T06:05:32;23.60;42.70
80560;DHT22;70065;42.700;23.316;2024-02-04T06:07:58;23.60;42.80
80560;DHT22;70065;42.700;23.316;2024-02-04T06:10:24;23.60;42.80
80560;DHT22;70065;42.700;23.316;2024-02-04T06:12:49;23.60;42.80
80560;DHT22;70065;42.700;23.316;2024-02-04T06:15:16;23.60;42.90
80560;DHT22;70065;42.700;23.316;2024-02-04T06:17:42;23.60;42.90
80560;DHT22;70065;42.700;23.316;2024-02-04T06:20:08;23.60;42.70
80560;DHT22;70065;42.700;23.316;2024-02-04T06:22:35;23.60;42.70
80560;DHT22;70065;42.700;23.316;2024-02-04T06:25:04;23.60;43.60
80560;DHT22;70065;42.700;23.316;2024-02-04T06:27:30;23.60;42.10
80560;DHT22;70065;42.700;23.316;2024-02-04T06:29:56;23.60;42.40
80560;DHT22;70065;42.700;23.316;2024-02-04T06:32:22;23.60;42.70
80560;DHT22;70065;42.700;23.316;2024-02-04T06:34:49;23.60;42.60
80560;DHT22;70065;42.700;23.316;2024-02-04T06:37:16;23.60;42.70
80560;DHT22;70065;42.700;23.316;2024-02-04T06:39:42;23.60;42.70
80560;DHT22;70065;42.700;23.316;2024-02-04T06:42:08;23.60;42.70
80560;DHT22;70065;42.700;23.316;2024-02-04T06:44:34;23.60;42.00
80560;DHT22;70065;42.700;23.316;2024-02-04T06:47:00;23.60;42.30
80560;DHT22;70065;42.700;23.316;2024-02-04T06:49:26;23.60;42.60
80560;DHT22;70065;42.700;23.316;2024-02-04T06:51:52;23.60;42.50
80560;DHT22;70065;42.700;23.316;2024-02-04T06:54:22;23.60;42.40
80560;DHT22;70065;42.700;23.316;2024-02-04T06:56:48;23.60;42.50
80560;DHT22;70065;42.700;23.316;2024-02-04T06:59:14;23.60;42.60
80560;DHT22;70065;42.700;23.316;2024-02-04T07:01:39;23.60;42.30
80560;DHT22;70065;42.700;23.316;2024-02-04T07:04:05;23.60;42.20
80560;DHT22;70065;42.700;23.316;2024-02-04T07:06:31;23.60;42.00
80560;DHT22;70065;42.700;23.316;2024-02-04T07:08:56;23.60;42.00
80560;DHT22;70065;42.700;23.316;2024-02-04T07:11:22;23.60;42.30
80560;DHT22;70065;42.700;23.316;2024-02-04T07:13:49;23.60;41.70
80560;DHT22;70065;42.700;23.316;2024-02-04T07:16:15;23.60;42.20
80560;DHT22;70065;42.700;23.316;2024-02-04T07:18:40;23.60;42.50
80560;DHT22;70065;42.700;23.316;2024-02-04T07:21:06;23.60;42.30
80560;DHT22;70065;42.700;23.316;2024-02-04T07:23:32;23.60;41.90
80560;DHT22;70065;42.700;23.316;2024-02-04T07:25:58;23.60;41.80
80560;DHT22;70065;42.700;23.316;2024-02-04T07:28:23;23.60;41.60
80560;DHT22;70065;42.700;23.316;2024-02-04T07:30:49;23.60;41.30
80560;DHT22;70065;42.700;23.316;2024-02-04T07:33:15;23.60;41.70
80560;DHT22;70065;42.700;23.316;2024-02-04T07:35:40;23.60;41.80
80560;DHT22;70065;42.700;23.316;2024-02-04T07:38:06;23.60;41.80
80560;DHT22;70065;42.700;23.316;2024-02-04T07:40:32;23.60;41.50
80560;DHT22;70065;42.700;23.316;2024-02-04T07:42:58;23.60;41.40
80560;DHT22;70065;42.700;23.316;2024-02-04T07:45:23;23.60;40.90
80560;DHT22;70065;42.700;23.316;2024-02-04T07:47:49;23.60;41.80
80560;DHT22;70065;42.700;23.316;2024-02-04T07:50:15;23.60;42.20
80560;DHT22;70065;42.700;23.316;2024-02-04T07:52:41;23.60;41.70
80560;DHT22;70065;42.700;23.316;2024-02-04T07:55:06;23.60;41.60
80560;DHT22;70065;42.700;23.316;2024-02-04T07:57:32;23.60;41.70
80560;DHT22;70065;42.700;23.316;2024-02-04T07:59:58;23.60;41.90
80560;DHT22;70065;42.700;23.316;2024-02-04T08:02:24;23.60;42.20
80560;DHT22;70065;42.700;23.316;2024-02-04T08:04:49;23.60;42.00
80560;DHT22;70065;42.700;23.316;2024-02-04T08:07:15;23.70;42.00
80560;DHT22;70065;42.700;23.316;2024-02-04T08:09:42;23.70;42.30
80560;DHT22;70065;42.700;23.316;2024-02-04T08:12:08;23.70;42.40
80560;DHT22;70065;42.700;23.316;2024-02-04T08:14:35;23.80;42.40
80560;DHT22;70065;42.700;23.316;2024-02-04T08:17:01;23.80;42.40
80560;DHT22;70065;42.700;23.316;2024-02-04T08:19:26;23.80;42.70
80560;DHT22;70065;42.700;23.316;2024-02-04T08:21:52;23.80;42.80
80560;DHT22;70065;42.700;23.316;2024-02-04T08:24:18;23.80;42.70
80560;DHT22;70065;42.700;23.316;2024-02-04T08:26:43;23.80;43.10
80560;DHT22;70065;42.700;23.316;2024-02-04T08:29:09;23.90;43.30
80560;DHT22;70065;42.700;23.316;2024-02-04T08:31:35;23.90;43.50
80560;DHT22;70065;42.700;23.316;2024-02-04T08:34:00;23.90;44.30
80560;DHT22;70065;42.700;23.316;2024-02-04T08:36:28;23.90;44.10
80560;DHT22;70065;42.700;23.316;2024-02-04T08:38:55;24.00;43.40
80560;DHT22;70065;42.700;23.316;2024-02-04T08:41:21;24.00;43.10
80560;DHT22;70065;42.700;23.316;2024-02-04T08:43:46;24.00;43.00
80560;DHT22;70065;42.700;23.316;2024-02-04T08:46:12;24.00;42.80
80560;DHT22;70065;42.700;23.316;2024-02-04T08:48:38;24.00;42.70
80560;DHT22;70065;42.700;23.316;2024-02-04T08:51:09;24.00;42.80
80560;DHT22;70065;42.700;23.316;2024-02-04T08:53:35;24.00;42.90
80560;DHT22;70065;42.700;23.316;2024-02-04T08:56:01;24.00;42.70
80560;DHT22;70065;42.700;23.316;2024-02-04T08:58:26;24.00;42.80
80560;DHT22;70065;42.700;23.316;2024-02-04T09:00:52;24.10;42.80
80560;DHT22;70065;42.700;23.316;2024-02-04T09:03:18;24.10;42.60
80560;DHT22;70065;42.700;23.316;2024-02-04T09:05:44;24.10;42.70
80560;DHT22;70065;42.700;23.316;2024-02-04T09:08:10;24.10;42.70
80560;DHT22;70065;42.700;23.316;2024-02-04T09:10:36;24.10;42.30
80560;DHT22;70065;42.700;23.316;2024-02-04T09:13:02;24.10;43.50
80560;DHT22;70065;42.700;23.316;2024-02-04T09:15:28;24.00;41.20
80560;DHT22;70065;42.700;23.316;2024-02-04T09:17:53;24.10;42.20
80560;DHT22;70065;42.700;23.316;2024-02-04T09:20:19;24.10;44.50
80560;DHT22;70065;42.700;23.316;2024-02-04T09:22:45;24.10;43.50
80560;DHT22;70065;42.700;23.316;2024-02-04T09:25:10;24.10;43.70
80560;DHT22;70065;42.700;23.316;2024-02-04T09:27:36;24.20;44.20
80560;DHT22;70065;42.700;23.316;2024-02-04T09:30:03;24.30;44.70
80560;DHT22;70065;42.700;23.316;2024-02-04T09:32:29;24.30;45.40
80560;DHT22;70065;42.700;23.316;2024-02-04T09:34:54;24.40;45.70
80560;DHT22;70065;42.700;23.316;2024-02-04T09:37:20;24.40;46.50
80560;DHT22;70065;42.700;23.316;2024-02-04T09:39:46;24.40;46.70
80560;DHT22;70065;42.700;23.316;2024-02-04T09:42:19;24.40;47.10
80560;DHT22;70065;42.700;23.316;2024-02-04T09:44:46;24.40;47.60
80560;DHT22;70065;42.700;23.316;2024-02-04T09:47:13;24.40;47.80
80560;DHT22;70065;42.700;23.316;2024-02-04T09:49:39;24.40;48.40
80560;DHT22;70065;42.700;23.316;2024-02-04T09:52:08;24.40;48.90
80560;DHT22;70065;42.700;23.316;2024-02-04T09:54:45;24.50;48.80
80560;DHT22;70065;42.700;23.316;2024-02-04T09:57:12;24.50;48.50
80560;DHT22;70065;42.700;23.316;2024-02-04T09:59:38;24.40;47.80
80560;DHT22;70065;42.700;23.316;2024-02-04T10:02:04;24.50;48.10
80560;DHT22;70065;42.700;23.316;2024-02-04T10:04:31;24.40;47.40
80560;DHT22;70065;42.700;23.316;2024-02-04T10:06:56;24.40;46.80
80560;DHT22;70065;42.700;23.316;2024-02-04T10:09:22;24.40;46.30
80560;DHT22;70065;42.700;23.316;2024-02-04T10:11:48;24.40;45.90
80560;DHT22;70065;42.700;23.316;2024-02-04T10:14:15;24.40;46.20
80560;DHT22;70065;42.700;23.316;2024-02-04T10:16:41;24.40;46.50
80560;DHT22;70065;42.700;23.316;2024-02-04T10:19:07;24.40;46.50
80560;DHT22;70065;42.700;23.316;2024-02-04T10:21:33;24.40;46.70
80560;DHT22;70065;42.700;23.316;2024-02-04T10:23:58;24.40;46.90
80560;DHT22;70065;42.700;23.316;2024-02-04T10:26:29;24.40;48.00
80560;DHT22;70065;42.700;23.316;2024-02-04T10:29:00;24.40;46.90
80560;DHT22;70065;42.700;23.316;2024-02-04T10:31:26;24.40;46.20
80560;DHT22;70065;42.700;23.316;2024-02-04T10:33:52;24.40;46.40
80560;DHT22;70065;42.700;23.316;2024-02-04T10:36:20;24.40;45.80
80560;DHT22;70065;42.700;23.316;2024-02-04T10:38:46;24.40;45.80
80560;DHT22;70065;42.700;23.316;2024-02-04T10:41:16;24.40;46.40
80560;DHT22;70065;42.700;23.316;2024-02-04T10:43:43;24.40;47.20
80560;DHT22;70065;42.700;23.316;2024-02-04T10:46:13;24.40;47.20
80560;DHT22;70065;42.700;23.316;2024-02-04T10:48:42;24.40;47.10
80560;DHT22;70065;42.700;23.316;2024-02-04T10:51:13;24.40;48.30
80560;DHT22;70065;42.700;23.316;2024-02-04T10:53:44;24.40;47.50
80560;DHT22;70065;42.700;23.316;2024-02-04T10:57:03;24.40;47.40
80560;DHT22;70065;42.700;23.316;2024-02-04T10:59:07;24.40;47.30
80560;DHT22;70065;42.700;23.316;2024-02-04T11:01:33;24.30;47.30
80560;DHT22;70065;42.700;23.316;2024-02-04T11:03:59;24.30;47.60
80560;DHT22;70065;42.700;23.316;2024-02-04T11:06:26;24.40;47.50
80560;DHT22;70065;42.700;23.316;2024-02-04T11:08:53;24.40;47.40
80560;DHT22;70065;42.700;23.316;2024-02-04T11:11:20;24.30;47.20
80560;DHT22;70065;42.700;23.316;2024-02-04T11:13:51;24.40;47.30
80560;DHT22;70065;42.700;23.316;2024-02-04T11:27:45;24.60;47.20
80560;DHT22;70065;42.700;23.316;2024-02-04T11:30:11;24.60;47.20
80560;DHT22;70065;42.700;23.316;2024-02-04T11:32:37;24.70;47.10
80560;DHT22;70065;42.700;23.316;2024-02-04T11:35:03;24.70;47.10
80560;DHT22;70065;42.700;23.316;2024-02-04T11:37:33;24.80;47.10
80560;DHT22;70065;42.700;23.316;2024-02-04T11:39:59;24.90;47.10
80560;DHT22;70065;42.700;23.316;2024-02-04T11:42:25;25.00;47.10
80560;DHT22;70065;42.700;23.316;2024-02-04T11:45:06;25.00;47.10
80560;DHT22;70065;42.700;23.316;2024-02-04T11:47:33;25.00;46.80
80560;DHT22;70065;42.700;23.316;2024-02-04T11:50:00;25.10;46.90
80560;DHT22;70065;42.700;23.316;2024-02-04T11:52:29;25.10;46.80
80560;DHT22;70065;42.700;23.316;2024-02-04T11:54:55;25.20;46.30
80560;DHT22;70065;42.700;23.316;2024-02-04T11:57:23;25.10;46.50
80560;DHT22;70065;42.700;23.316;2024-02-04T11:59:49;25.00;45.40
80560;DHT22;70065;42.700;23.316;2024-02-04T12:02:17;25.00;45.30
80560;DHT22;70065;42.700;23.316;2024-02-04T12:04:46;25.00;44.80
80560;DHT22;70065;42.700;23.316;2024-02-04T12:07:16;24.90;45.10
80560;DHT22;70065;42.700;23.316;2024-02-04T12:09:42;24.90;45.20
80560;DHT22;70065;42.700;23.316;2024-02-04T12:12:08;24.80;45.40
80560;DHT22;70065;42.700;23.316;2024-02-04T12:14:39;24.80;45.60
80560;DHT22;70065;42.700;23.316;2024-02-04T12:17:09;24.80;45.50
80560;DHT22;70065;42.700;23.316;2024-02-04T12:19:36;24.80;45.40
80560;DHT22;70065;42.700;23.316;2024-02-04T12:22:02;24.80;45.70
80560;DHT22;70065;42.700;23.316;2024-02-04T12:24:33;24.80;45.80
80560;DHT22;70065;42.700;23.316;2024-02-04T12:26:59;24.80;45.70
80560;DHT22;70065;42.700;23.316;2024-02-04T12:29:25;24.80;45.60
80560;DHT22;70065;42.700;23.316;2024-02-04T12:32:06;24.80;45.70
80560;DHT22;70065;42.700;23.316;2024-02-04T12:34:32;24.80;45.90
80560;DHT22;70065;42.700;23.316;2024-02-04T12:37:02;24.80;46.50
80560;DHT22;70065;42.700;23.316;2024-02-04T12:39:29;24.80;47.30
80560;DHT22;70065;42.700;23.316;2024-02-04T12:41:58;24.90;48.20
80560;DHT22;70065;42.700;23.316;2024-02-04T12:44:24;24.90;48.60
80560;DHT22;70065;42.700;23.316;2024-02-04T12:46:53;25.00;49.00
80560;DHT22;70065;42.700;23.316;2024-02-04T12:49:19;25.00;49.10
80560;DHT22;70065;42.700;23.316;2024-02-04T12:51:49;25.00;49.20
80560;DHT22;70065;42.700;23.316;2024-02-04T12:54:14;25.10;49.30
80560;DHT22;70065;42.700;23.316;2024-02-04T12:56:44;25.10;49.10
80560;DHT22;70065;42.700;23.316;2024-02-04T12:59:11;25.10;48.70
80560;DHT22;70065;42.700;23.316;2024-02-04T13:01:38;25.10;48.70
80560;DHT22;70065;42.700;23.316;2024-02-04T13:04:04;25.10;48.80
80560;DHT22;70065;42.700;23.316;2024-02-04T13:06:30;25.20;48.90
80560;DHT22;70065;42.700;23.316;2024-02-04T13:08:57;25.20;49.80
80560;DHT22;70065;42.700;23.316;2024-02-04T13:11:26;25.20;48.70
80560;DHT22;70065;42.700;23.316;2024-02-04T13:13:51;25.20;48.40
80560;DHT22;70065;42.700;23.316;2024-02-04T13:16:18;25.20;48.10
80560;DHT22;70065;42.700;23.316;2024-02-04T13:18:52;25.20;48.20
80560;DHT22;70065;42.700;23.316;2024-02-04T13:21:18;25.20;47.90
80560;DHT22;70065;42.700;23.316;2024-02-04T13:23:47;25.20;48.00
80560;DHT22;70065;42.700;23.316;2024-02-04T13:26:14;25.10;47.50
80560;DHT22;70065;42.700;23.316;2024-02-04T13:28:40;25.10;47.60
80560;DHT22;70065;42.700;23.316;2024-02-04T13:31:05;25.10;47.40
80560;DHT22;70065;42.700;23.316;2024-02-04T13:33:32;25.10;47.40
80560;DHT22;70065;42.700;23.316;2024-02-04T13:35:58;25.10;47.20
80560;DHT22;70065;42.700;23.316;2024-02-04T13:38:24;25.10;47.20
80560;DHT22;70065;42.700;23.316;2024-02-04T13:40:50;25.10;47.00
80560;DHT22;70065;42.700;23.316;2024-02-04T13:43:16;25.10;46.90
80560;DHT22;70065;42.700;23.316;2024-02-04T13:45:42;25.10;47.00
80560;DHT22;70065;42.700;23.316;2024-02-04T13:48:07;25.10;46.80
80560;DHT22;70065;42.700;23.316;2024-02-04T13:50:33;25.00;46.80
80560;DHT22;70065;42.700;23.316;2024-02-04T13:53:01;25.10;46.50
80560;DHT22;70065;42.700;23.316;2024-02-04T13:55:26;25.00;46.30
80560;DHT22;70065;42.700;23.316;2024-02-04T13:57:52;25.00;46.40
80560;DHT22;70065;42.700;23.316;2024-02-04T14:00:18;25.00;46.30
80560;DHT22;70065;42.700;23.316;2024-02-04T14:02:44;25.00;46.30
80560;DHT22;70065;42.700;23.316;2024-02-04T14:05:10;25.00;46.30
80560;DHT22;70065;42.700;23.316;2024-02-04T14:07:36;25.00;46.20
80560;DHT22;70065;42.700;23.316;2024-02-04T14:10:02;25.00;46.20
80560;DHT22;70065;42.700;23.316;2024-02-04T14:12:28;25.00;46.10
80560;DHT22;70065;42.700;23.316;2024-02-04T14:14:54;25.00;46.20
80560;DHT22;70065;42.700;23.316;2024-02-04T14:17:20;25.00;46.20
80560;DHT22;70065;42.700;23.316;2024-02-04T14:19:46;25.00;46.10
80560;DHT22;70065;42.700;23.316;2024-02-04T14:22:15;25.00;43.20
80560;DHT22;70065;42.700;23.316;2024-02-04T14:24:42;25.00;43.60
80560;DHT22;70065;42.700;23.316;2024-02-04T14:27:08;25.00;44.20
80560;DHT22;70065;42.700;23.316;2024-02-04T14:29:34;24.90;44.90
80560;DHT22;70065;42.700;23.316;2024-02-04T14:32:00;24.90;45.30
80560;DHT22;70065;42.700;23.316;2024-02-04T14:34:25;24.90;45.40
80560;DHT22;70065;42.700;23.316;2024-02-04T14:36:53;24.90;45.30
80560;DHT22;70065;42.700;23.316;2024-02-04T14:39:18;24.80;45.10
80560;DHT22;70065;42.700;23.316;2024-02-04T14:41:44;24.80;45.20
80560;DHT22;70065;42.700;23.316;2024-02-04T14:44:10;24.80;45.20
80560;DHT22;70065;42.700;23.316;2024-02-04T14:46:37;24.80;45.20
80560;DHT22;70065;42.700;23.316;2024-02-04T14:49:03;24.80;45.20
80560;DHT22;70065;42.700;23.316;2024-02-04T14:51:30;24.70;45.10
80560;DHT22;70065;42.700;23.316;2024-02-04T14:53:57;24.80;45.10
80560;DHT22;70065;42.700;23.316;2024-02-04T14:56:23;24.70;45.00
80560;DHT22;70065;42.700;23.316;2024-02-04T14:58:49;24.70;45.10
80560;DHT22;70065;42.700;23.316;2024-02-04T15:01:15;24.70;45.10
80560;DHT22;70065;42.700;23.316;2024-02-04T15:03:41;24.70;45.00
80560;DHT22;70065;42.700;23.316;2024-02-04T15:06:07;24.70;45.10
80560;DHT22;70065;42.700;23.316;2024-02-04T15:08:33;24.60;45.00
80560;DHT22;70065;42.700;23.316;2024-02-04T15:11:00;24.60;45.00
80560;DHT22;70065;42.700;23.316;2024-02-04T15:13:26;24.60;45.00
80560;DHT22;70065;42.700;23.316;2024-02-04T15:15:52;24.60;45.00
80560;DHT22;70065;42.700;23.316;2024-02-04T15:18:18;24.60;45.00
80560;DHT22;70065;42.700;23.316;2024-02-04T15:20:44;24.50;44.90
80560;DHT22;70065;42.700;23.316;2024-02-04T15:23:10;24.50;44.90
80560;DHT22;70065;42.700;23.316;2024-02-04T15:25:36;24.50;44.90